sensor_id;sensor_type;location;lat;lon;timestamp;P1;durP1;ratioP1;P2;durP2;ratioP2
47896;SDS011;39629;51.400;5.494;2023-02-28T00:02:05;12.02;;;5.20;;
47896;SDS011;39629;51.400;5.494;2023-02-28T00:07:07;10.60;;;5.20;;
47896;SDS011;39629;51.400;5.494;2023-02-28T00:12:09;10.43;;;5.03;;
47896;SDS011;39629;51.400;5.494;2023-02-28T00:17:12;14.48;;;5.10;;
47896;SDS011;39629;51.400;5.494;2023-02-28T00:22:14;9.27;;;4.75;;
47896;SDS011;39629;51.400;5.494;2023-02-28T00:27:15;9.95;;;4.97;;
47896;SDS011;39629;51.400;5.494;2023-02-28T00:32:18;8.57;;;4.90;;
47896;SDS011;39629;51.400;5.494;2023-02-28T00:37:20;8.30;;;4.78;;
47896;SDS011;39629;51.400;5.494;2023-02-28T00:42:22;8.73;;;5.03;;
47896;SDS011;39629;51.400;5.494;2023-02-28T00:47:25;11.93;;;5.07;;
47896;SDS011;39629;51.400;5.494;2023-02-28T00:52:27;10.95;;;5.35;;
47896;SDS011;39629;51.400;5.494;2023-02-28T00:57:28;10.43;;;5.28;;
47896;SDS011;39629;51.400;5.494;2023-02-28T01:02:31;10.40;;;5.20;;
47896;SDS011;39629;51.400;5.494;2023-02-28T01:07:33;10.75;;;5.25;;
47896;SDS011;39629;51.400;5.494;2023-02-28T01:12:35;8.85;;;4.80;;
47896;SDS011;39629;51.400;5.494;2023-02-28T01:17:38;9.90;;;5.20;;
47896;SDS011;39629;51.400;5.494;2023-02-28T01:22:39;9.93;;;5.22;;
47896;SDS011;39629;51.400;5.494;2023-02-28T01:27:41;9.32;;;5.18;;
47896;SDS011;39629;51.400;5.494;2023-02-28T01:32:44;7.50;;;4.18;;
47896;SDS011;39629;51.400;5.494;2023-02-28T01:37:46;10.35;;;4.57;;
47896;SDS011;39629;51.400;5.494;2023-02-28T01:42:47;9.88;;;5.20;;
47896;SDS011;39629;51.400;5.494;2023-02-28T01:47:51;13.65;;;5.80;;
47896;SDS011;39629;51.400;5.494;2023-02-28T01:52:57;9.68;;;5.40;;
47896;SDS011;39629;51.400;5.494;2023-02-28T01:58:05;10.80;;;5.97;;
47896;SDS011;39629;51.400;5.494;2023-02-28T02:03:12;13.38;;;5.25;;
47896;SDS011;39629;51.400;5.494;2023-02-28T02:08:17;10.65;;;4.80;;
47896;SDS011;39629;51.400;5.494;2023-02-28T02:13:39;9.18;;;4.75;;
47896;SDS011;39629;51.400;5.494;2023-02-28T02:18:57;11.48;;;4.82;;
47896;SDS011;39629;51.400;5.494;2023-02-28T02:35:24;8.82;;;4.82;;
47896;SDS011;39629;51.400;5.494;2023-02-28T02:40:33;13.57;;;5.25;;
47896;SDS011;39629;51.400;5.494;2023-02-28T02:45:40;10.52;;;4.85;;
47896;SDS011;39629;51.400;5.494;2023-02-28T02:50:48;7.65;;;4.38;;
47896;SDS011;39629;51.400;5.494;2023-02-28T02:55:52;8.52;;;4.57;;
47896;SDS011;39629;51.400;5.494;2023-02-28T03:00:58;11.68;;;5.85;;
47896;SDS011;39629;51.400;5.494;2023-02-28T03:06:06;14.65;;;5.50;;
47896;SDS011;39629;51.400;5.494;2023-02-28T03:11:11;10.45;;;4.70;;
47896;SDS011;39629;51.400;5.494;2023-02-28T03:16:22;8.63;;;4.50;;
47896;SDS011;39629;51.400;5.494;2023-02-28T03:21:38;10.93;;;5.65;;
47896;SDS011;39629;51.400;5.494;2023-02-28T03:26:45;10.57;;;5.22;;
47896;SDS011;39629;51.400;5.494;2023-02-28T03:31:54;9.65;;;5.22;;
47896;SDS011;39629;51.400;5.494;2023-02-28T03:37:06;10.38;;;5.03;;
47896;SDS011;39629;51.400;5.494;2023-02-28T03:42:12;9.77;;;5.30;;
47896;SDS011;39629;51.400;5.494;2023-02-28T03:47:17;8.85;;;4.47;;
47896;SDS011;39629;51.400;5.494;2023-02-28T03:52:27;12.48;;;5.70;;
47896;SDS011;39629;51.400;5.494;2023-02-28T03:57:34;8.75;;;4.57;;
47896;SDS011;39629;51.400;5.494;2023-02-28T04:02:41;9.50;;;5.30;;
47896;SDS011;39629;51.400;5.494;2023-02-28T04:07:44;9.25;;;4.60;;
47896;SDS011;39629;51.400;5.494;2023-02-28T04:12:45;12.25;;;4.93;;
47896;SDS011;39629;51.400;5.494;2023-02-28T04:17:47;8.85;;;4.95;;
47896;SDS011;39629;51.400;5.494;2023-02-28T04:22:50;10.98;;;4.40;;
47896;SDS011;39629;51.400;5.494;2023-02-28T04:27:51;13.35;;;4.68;;
47896;SDS011;39629;51.400;5.494;2023-02-28T04:32:53;10.50;;;4.43;;
47896;SDS011;39629;51.400;5.494;2023-02-28T04:37:56;9.35;;;4.40;;
47896;SDS011;39629;51.400;5.494;2023-02-28T04:42:58;10.50;;;4.60;;
47896;SDS011;39629;51.400;5.494;2023-02-28T04:47:59;8.65;;;3.95;;
47896;SDS011;39629;51.400;5.494;2023-02-28T04:53:02;9.13;;;4.13;;
47896;SDS011;39629;51.400;5.494;2023-02-28T04:58:04;7.32;;;3.90;;
47896;SDS011;39629;51.400;5.494;2023-02-28T05:03:05;13.23;;;4.75;;
47896;SDS011;39629;51.400;5.494;2023-02-28T05:08:08;11.55;;;4.78;;
47896;SDS011;39629;51.400;5.494;2023-02-28T05:13:11;9.23;;;4.40;;
47896;SDS011;39629;51.400;5.494;2023-02-28T05:18:13;11.07;;;4.72;;
47896;SDS011;39629;51.400;5.494;2023-02-28T05:23:16;8.52;;;4.10;;
47896;SDS011;39629;51.400;5.494;2023-02-28T05:28:21;9.93;;;3.92;;
47896;SDS011;39629;51.400;5.494;2023-02-28T05:33:23;8.38;;;4.20;;
47896;SDS011;39629;51.400;5.494;2023-02-28T05:38:25;8.68;;;4.28;;
47896;SDS011;39629;51.400;5.494;2023-02-28T05:43:27;8.50;;;4.20;;
47896;SDS011;39629;51.400;5.494;2023-02-28T05:48:28;8.50;;;3.88;;
47896;SDS011;39629;51.400;5.494;2023-02-28T05:53:32;11.07;;;4.40;;
47896;SDS011;39629;51.400;5.494;2023-02-28T05:58:34;7.10;;;3.88;;
47896;SDS011;39629;51.400;5.494;2023-02-28T06:03:36;6.80;;;3.63;;
47896;SDS011;39629;51.400;5.494;2023-02-28T06:08:39;9.05;;;4.03;;
47896;SDS011;39629;51.400;5.494;2023-02-28T06:13:40;10.55;;;5.20;;
47896;SDS011;39629;51.400;5.494;2023-02-28T06:18:42;9.18;;;3.97;;
47896;SDS011;39629;51.400;5.494;2023-02-28T06:23:45;8.45;;;4.00;;
47896;SDS011;39629;51.400;5.494;2023-02-28T06:28:47;8.60;;;3.88;;
47896;SDS011;39629;51.400;5.494;2023-02-28T06:33:49;9.40;;;4.15;;
47896;SDS011;39629;51.400;5.494;2023-02-28T06:38:52;7.53;;;3.80;;
47896;SDS011;39629;51.400;5.494;2023-02-28T06:43:55;8.73;;;4.20;;
47896;SDS011;39629;51.400;5.494;2023-02-28T06:48:57;10.32;;;4.00;;
47896;SDS011;39629;51.400;5.494;2023-02-28T06:54:01;9.25;;;3.88;;
47896;SDS011;39629;51.400;5.494;2023-02-28T06:59:03;9.80;;;4.15;;
47896;SDS011;39629;51.400;5.494;2023-02-28T07:04:06;10.45;;;4.35;;
47896;SDS011;39629;51.400;5.494;2023-02-28T07:09:09;9.48;;;3.75;;
47896;SDS011;39629;51.400;5.494;2023-02-28T07:14:10;7.85;;;3.72;;
47896;SDS011;39629;51.400;5.494;2023-02-28T07:19:12;8.40;;;3.72;;
47896;SDS011;39629;51.400;5.494;2023-02-28T07:24:15;7.78;;;3.75;;
47896;SDS011;39629;51.400;5.494;2023-02-28T07:29:18;7.32;;;3.85;;
47896;SDS011;39629;51.400;5.494;2023-02-28T07:34:19;6.38;;;3.67;;
47896;SDS011;39629;51.400;5.494;2023-02-28T07:39:22;7.20;;;3.25;;
47896;SDS011;39629;51.400;5.494;2023-02-28T07:44:24;8.15;;;3.40;;
47896;SDS011;39629;51.400;5.494;2023-02-28T07:49:25;9.15;;;3.17;;
47896;SDS011;39629;51.400;5.494;2023-02-28T07:54:28;5.13;;;2.85;;
47896;SDS011;39629;51.400;5.494;2023-02-28T07:59:30;6.55;;;2.70;;
47896;SDS011;39629;51.400;5.494;2023-02-28T08:04:32;3.78;;;2.42;;
47896;SDS011;39629;51.400;5.494;2023-02-28T08:09:35;4.70;;;2.55;;
47896;SDS011;39629;51.400;5.494;2023-02-28T08:14:37;3.63;;;2.28;;
47896;SDS011;39629;51.400;5.494;2023-02-28T08:19:39;4.30;;;1.92;;
47896;SDS011;39629;51.400;5.494;2023-02-28T08:24:42;3.95;;;1.83;;
47896;SDS011;39629;51.400;5.494;2023-02-28T08:29:44;3.78;;;2.20;;
47896;SDS011;39629;51.400;5.494;2023-02-28T08:34:46;6.57;;;1.90;;
47896;SDS011;39629;51.400;5.494;2023-02-28T08:39:49;3.63;;;1.90;;
47896;SDS011;39629;51.400;5.494;2023-02-28T08:44:50;5.50;;;2.10;;
47896;SDS011;39629;51.400;5.494;2023-02-28T08:49:52;4.22;;;2.00;;
47896;SDS011;39629;51.400;5.494;2023-02-28T08:54:55;2.97;;;1.83;;
47896;SDS011;39629;51.400;5.494;2023-02-28T08:59:56;3.88;;;1.98;;
47896;SDS011;39629;51.400;5.494;2023-02-28T09:04:58;3.40;;;1.50;;
47896;SDS011;39629;51.400;5.494;2023-02-28T09:10:01;5.03;;;1.60;;
47896;SDS011;39629;51.400;5.494;2023-02-28T09:15:03;2.60;;;1.50;;
47896;SDS011;39629;51.400;5.494;2023-02-28T09:20:06;2.90;;;1.33;;
47896;SDS011;39629;51.400;5.494;2023-02-28T09:25:10;2.88;;;1.50;;
47896;SDS011;39629;51.400;5.494;2023-02-28T09:30:12;3.55;;;1.80;;
47896;SDS011;39629;51.400;5.494;2023-02-28T09:35:14;1.80;;;1.20;;
47896;SDS011;39629;51.400;5.494;2023-02-28T09:40:18;3.20;;;1.45;;
47896;SDS011;39629;51.400;5.494;2023-02-28T09:45:22;2.28;;;1.10;;
47896;SDS011;39629;51.400;5.494;2023-02-28T09:50:30;2.22;;;1.33;;
47896;SDS011;39629;51.400;5.494;2023-02-28T09:55:37;2.25;;;1.27;;
47896;SDS011;39629;51.400;5.494;2023-02-28T10:00:42;1.98;;;1.30;;
47896;SDS011;39629;51.400;5.494;2023-02-28T10:05:47;3.72;;;1.75;;
47896;SDS011;39629;51.400;5.494;2023-02-28T10:10:56;1.88;;;1.00;;
47896;SDS011;39629;51.400;5.494;2023-02-28T10:16:01;2.30;;;1.20;;
47896;SDS011;39629;51.400;5.494;2023-02-28T10:21:08;3.40;;;1.52;;
47896;SDS011;39629;51.400;5.494;2023-02-28T10:26:20;1.90;;;1.20;;
47896;SDS011;39629;51.400;5.494;2023-02-28T10:31:23;2.80;;;1.40;;
47896;SDS011;39629;51.400;5.494;2023-02-28T10:36:25;1.75;;;0.98;;
47896;SDS011;39629;51.400;5.494;2023-02-28T10:41:30;2.50;;;1.50;;
47896;SDS011;39629;51.400;5.494;2023-02-28T10:46:34;1.83;;;1.10;;
47896;SDS011;39629;51.400;5.494;2023-02-28T10:51:36;2.00;;;1.10;;
47896;SDS011;39629;51.400;5.494;2023-02-28T10:56:41;2.88;;;1.40;;
47896;SDS011;39629;51.400;5.494;2023-02-28T11:01:43;7.40;;;1.20;;
47896;SDS011;39629;51.400;5.494;2023-02-28T11:06:55;2.03;;;1.30;;
47896;SDS011;39629;51.400;5.494;2023-02-28T11:12:00;2.33;;;1.02;;
47896;SDS011;39629;51.400;5.494;2023-02-28T11:17:11;2.70;;;1.23;;
47896;SDS011;39629;51.400;5.494;2023-02-28T11:22:17;4.05;;;1.50;;
47896;SDS011;39629;51.400;5.494;2023-02-28T11:27:45;2.85;;;1.30;;
47896;SDS011;39629;51.400;5.494;2023-02-28T11:32:48;2.50;;;1.40;;
47896;SDS011;39629;51.400;5.494;2023-02-28T11:37:51;3.05;;;1.10;;
47896;SDS011;39629;51.400;5.494;2023-02-28T11:42:57;3.05;;;1.30;;
47896;SDS011;39629;51.400;5.494;2023-02-28T11:48:08;2.50;;;1.15;;
47896;SDS011;39629;51.400;5.494;2023-02-28T11:53:21;2.70;;;1.50;;
47896;SDS011;39629;51.400;5.494;2023-02-28T11:58:39;3.25;;;1.42;;
47896;SDS011;39629;51.400;5.494;2023-02-28T12:03:52;2.03;;;1.45;;
47896;SDS011;39629;51.400;5.494;2023-02-28T12:09:11;3.20;;;1.45;;
47896;SDS011;39629;51.400;5.494;2023-02-28T12:14:38;2.20;;;1.50;;
47896;SDS011;39629;51.400;5.494;2023-02-28T12:20:06;3.28;;;1.30;;
47896;SDS011;39629;51.400;5.494;2023-02-28T12:25:33;2.83;;;1.63;;
47896;SDS011;39629;51.400;5.494;2023-02-28T12:30:50;3.13;;;1.70;;
47896;SDS011;39629;51.400;5.494;2023-02-28T12:35:58;2.65;;;1.90;;
47896;SDS011;39629;51.400;5.494;2023-02-28T12:41:03;3.17;;;2.00;;
47896;SDS011;39629;51.400;5.494;2023-02-28T12:46:09;3.10;;;2.00;;
47896;SDS011;39629;51.400;5.494;2023-02-28T12:51:13;3.25;;;1.73;;
47896;SDS011;39629;51.400;5.494;2023-02-28T12:56:19;3.28;;;1.67;;
47896;SDS011;39629;51.400;5.494;2023-02-28T13:01:42;5.70;;;1.70;;
47896;SDS011;39629;51.400;5.494;2023-02-28T13:07:07;3.85;;;1.60;;
47896;SDS011;39629;51.400;5.494;2023-02-28T13:12:25;3.78;;;1.73;;
47896;SDS011;39629;51.400;5.494;2023-02-28T13:17:29;3.22;;;1.60;;
47896;SDS011;39629;51.400;5.494;2023-02-28T13:22:37;3.00;;;1.80;;
47896;SDS011;39629;51.400;5.494;2023-02-28T13:27:41;2.30;;;1.50;;
47896;SDS011;39629;51.400;5.494;2023-02-28T13:32:45;4.80;;;1.85;;
47896;SDS011;39629;51.400;5.494;2023-02-28T13:37:47;3.00;;;1.50;;
47896;SDS011;39629;51.400;5.494;2023-02-28T13:42:51;3.30;;;1.60;;
47896;SDS011;39629;51.400;5.494;2023-02-28T13:47:55;2.05;;;1.48;;
47896;SDS011;39629;51.400;5.494;2023-02-28T13:58:46;3.92;;;2.28;;
47896;SDS011;39629;51.400;5.494;2023-02-28T14:04:03;2.03;;;1.70;;
47896;SDS011;39629;51.400;5.494;2023-02-28T14:09:23;2.83;;;1.80;;
47896;SDS011;39629;51.400;5.494;2023-02-28T14:19:59;3.83;;;2.35;;
47896;SDS011;39629;51.400;5.494;2023-02-28T14:25:06;3.15;;;1.80;;
47896;SDS011;39629;51.400;5.494;2023-02-28T14:36:03;3.38;;;2.30;;
47896;SDS011;39629;51.400;5.494;2023-02-28T14:41:12;3.60;;;2.05;;
47896;SDS011;39629;51.400;5.494;2023-02-28T14:46:19;3.20;;;2.20;;
47896;SDS011;39629;51.400;5.494;2023-02-28T14:51:23;2.28;;;1.63;;
47896;SDS011;39629;51.400;5.494;2023-02-28T14:56:26;2.53;;;1.73;;
47896;SDS011;39629;51.400;5.494;2023-02-28T15:01:31;3.40;;;2.00;;
47896;SDS011;39629;51.400;5.494;2023-02-28T15:06:35;3.40;;;2.10;;
47896;SDS011;39629;51.400;5.494;2023-02-28T15:11:37;3.28;;;2.33;;
47896;SDS011;39629;51.400;5.494;2023-02-28T15:16:41;3.55;;;2.15;;
47896;SDS011;39629;51.400;5.494;2023-02-28T15:21:48;3.13;;;2.20;;
47896;SDS011;39629;51.400;5.494;2023-02-28T15:26:53;5.45;;;2.10;;
47896;SDS011;39629;51.400;5.494;2023-02-28T15:32:00;2.53;;;1.73;;
47896;SDS011;39629;51.400;5.494;2023-02-28T15:42:29;2.72;;;1.80;;
47896;SDS011;39629;51.400;5.494;2023-02-28T15:47:31;4.25;;;2.30;;
47896;SDS011;39629;51.400;5.494;2023-02-28T15:52:38;2.65;;;1.98;;
47896;SDS011;39629;51.400;5.494;2023-02-28T15:57:43;4.57;;;2.30;;
47896;SDS011;39629;51.400;5.494;2023-02-28T16:02:46;3.03;;;2.03;;
47896;SDS011;39629;51.400;5.494;2023-02-28T16:07:50;3.00;;;2.00;;
47896;SDS011;39629;51.400;5.494;2023-02-28T16:12:52;3.55;;;1.98;;
47896;SDS011;39629;51.400;5.494;2023-02-28T16:17:55;4.43;;;2.10;;
47896;SDS011;39629;51.400;5.494;2023-02-28T16:22:59;3.60;;;2.10;;
47896;SDS011;39629;51.400;5.494;2023-02-28T16:28:01;3.93;;;1.97;;
47896;SDS011;39629;51.400;5.494;2023-02-28T16:33:04;3.30;;;2.28;;
47896;SDS011;39629;51.400;5.494;2023-02-28T16:38:06;3.25;;;2.03;;
47896;SDS011;39629;51.400;5.494;2023-02-28T16:43:10;3.55;;;2.20;;
47896;SDS011;39629;51.400;5.494;2023-02-28T16:48:19;3.55;;;2.10;;
47896;SDS011;39629;51.400;5.494;2023-02-28T16:53:22;3.70;;;2.15;;
47896;SDS011;39629;51.400;5.494;2023-02-28T16:58:23;4.78;;;2.10;;
47896;SDS011;39629;51.400;5.494;2023-02-28T17:03:27;4.18;;;2.20;;
47896;SDS011;39629;51.400;5.494;2023-02-28T17:08:31;4.28;;;2.00;;
47896;SDS011;39629;51.400;5.494;2023-02-28T17:13:33;3.42;;;2.40;;
47896;SDS011;39629;51.400;5.494;2023-02-28T17:18:35;3.15;;;1.83;;
47896;SDS011;39629;51.400;5.494;2023-02-28T17:23:38;3.70;;;2.10;;
47896;SDS011;39629;51.400;5.494;2023-02-28T17:28:39;4.03;;;2.20;;
47896;SDS011;39629;51.400;5.494;2023-02-28T17:33:41;3.15;;;2.00;;
47896;SDS011;39629;51.400;5.494;2023-02-28T17:38:44;4.93;;;2.10;;
47896;SDS011;39629;51.400;5.494;2023-02-28T17:43:45;5.07;;;1.95;;
47896;SDS011;39629;51.400;5.494;2023-02-28T17:48:47;4.85;;;2.10;;
47896;SDS011;39629;51.400;5.494;2023-02-28T17:53:50;4.43;;;2.17;;
47896;SDS011;39629;51.400;5.494;2023-02-28T17:58:52;3.67;;;2.03;;
47896;SDS011;39629;51.400;5.494;2023-02-28T18:03:55;3.97;;;2.22;;
47896;SDS011;39629;51.400;5.494;2023-02-28T18:08:58;4.05;;;2.15;;
47896;SDS011;39629;51.400;5.494;2023-02-28T18:13:59;3.95;;;2.35;;
47896;SDS011;39629;51.400;5.494;2023-02-28T18:19:01;4.70;;;2.60;;
47896;SDS011;39629;51.400;5.494;2023-02-28T18:24:04;3.67;;;2.30;;
47896;SDS011;39629;51.400;5.494;2023-02-28T18:29:06;4.18;;;2.13;;
47896;SDS011;39629;51.400;5.494;2023-02-28T18:34:09;6.20;;;2.55;;
47896;SDS011;39629;51.400;5.494;2023-02-28T18:39:12;4.35;;;2.70;;
47896;SDS011;39629;51.400;5.494;2023-02-28T18:44:14;6.00;;;2.60;;
47896;SDS011;39629;51.400;5.494;2023-02-28T18:49:16;4.05;;;2.25;;
47896;SDS011;39629;51.400;5.494;2023-02-28T18:54:19;4.28;;;2.45;;
47896;SDS011;39629;51.400;5.494;2023-02-28T18:59:20;5.18;;;2.40;;
47896;SDS011;39629;51.400;5.494;2023-02-28T19:04:22;4.25;;;2.55;;
47896;SDS011;39629;51.400;5.494;2023-02-28T19:09:25;6.47;;;2.67;;
47896;SDS011;39629;51.400;5.494;2023-02-28T19:14:27;6.55;;;2.72;;
47896;SDS011;39629;51.400;5.494;2023-02-28T19:19:28;5.55;;;3.53;;
47896;SDS011;39629;51.400;5.494;2023-02-28T19:24:31;6.57;;;3.35;;
47896;SDS011;39629;51.400;5.494;2023-02-28T19:29:33;5.15;;;2.97;;
47896;SDS011;39629;51.400;5.494;2023-02-28T19:34:35;7.53;;;3.05;;
47896;SDS011;39629;51.400;5.494;2023-02-28T19:39:37;7.47;;;3.25;;
47896;SDS011;39629;51.400;5.494;2023-02-28T19:49:43;8.40;;;3.50;;
47896;SDS011;39629;51.400;5.494;2023-02-28T19:54:45;8.35;;;3.40;;
47896;SDS011;39629;51.400;5.494;2023-02-28T19:59:47;6.15;;;3.30;;
47896;SDS011;39629;51.400;5.494;2023-02-28T20:04:49;6.78;;;3.30;;
47896;SDS011;39629;51.400;5.494;2023-02-28T20:09:52;8.20;;;3.63;;
47896;SDS011;39629;51.400;5.494;2023-02-28T20:14:53;8.55;;;3.92;;
47896;SDS011;39629;51.400;5.494;2023-02-28T20:19:56;12.88;;;4.03;;
47896;SDS011;39629;51.400;5.494;2023-02-28T20:24:59;7.65;;;3.25;;
47896;SDS011;39629;51.400;5.494;2023-02-28T20:30:00;6.88;;;3.80;;
47896;SDS011;39629;51.400;5.494;2023-02-28T20:35:02;9.23;;;4.43;;
47896;SDS011;39629;51.400;5.494;2023-02-28T20:40:07;8.45;;;3.92;;
47896;SDS011;39629;51.400;5.494;2023-02-28T20:45:10;8.85;;;4.32;;
47896;SDS011;39629;51.400;5.494;2023-02-28T20:50:12;8.07;;;4.30;;
47896;SDS011;39629;51.400;5.494;2023-02-28T20:55:15;8.60;;;4.20;;
47896;SDS011;39629;51.400;5.494;2023-02-28T21:00:17;10.27;;;4.68;;
47896;SDS011;39629;51.400;5.494;2023-02-28T21:05:19;7.03;;;4.15;;
47896;SDS011;39629;51.400;5.494;2023-02-28T21:10:22;9.38;;;4.20;;
47896;SDS011;39629;51.400;5.494;2023-02-28T21:15:24;7.80;;;4.10;;
47896;SDS011;39629;51.400;5.494;2023-02-28T21:20:25;9.38;;;4.22;;
47896;SDS011;39629;51.400;5.494;2023-02-28T21:25:28;8.40;;;4.60;;
47896;SDS011;39629;51.400;5.494;2023-02-28T21:30:30;9.63;;;4.75;;
47896;SDS011;39629;51.400;5.494;2023-02-28T21:35:32;7.30;;;3.72;;
47896;SDS011;39629;51.400;5.494;2023-02-28T21:40:35;9.70;;;4.57;;
47896;SDS011;39629;51.400;5.494;2023-02-28T21:45:36;9.60;;;4.50;;
47896;SDS011;39629;51.400;5.494;2023-02-28T21:50:38;7.32;;;4.25;;
47896;SDS011;39629;51.400;5.494;2023-02-28T21:55:41;8.75;;;4.45;;
47896;SDS011;39629;51.400;5.494;2023-02-28T22:00:42;8.10;;;4.50;;
47896;SDS011;39629;51.400;5.494;2023-02-28T22:05:45;7.38;;;4.10;;
47896;SDS011;39629;51.400;5.494;2023-02-28T22:10:48;8.38;;;3.95;;
47896;SDS011;39629;51.400;5.494;2023-02-28T22:15:49;10.55;;;4.72;;
47896;SDS011;39629;51.400;5.494;2023-02-28T22:20:52;8.43;;;4.47;;
47896;SDS011;39629;51.400;5.494;2023-02-28T22:25:55;8.95;;;4.43;;
47896;SDS011;39629;51.400;5.494;2023-02-28T22:31:00;9.35;;;4.50;;
47896;SDS011;39629;51.400;5.494;2023-02-28T22:36:12;8.70;;;4.18;;
47896;SDS011;39629;51.400;5.494;2023-02-28T22:41:16;8.45;;;4.40;;
47896;SDS011;39629;51.400;5.494;2023-02-28T22:46:20;10.55;;;4.80;;
47896;SDS011;39629;51.400;5.494;2023-02-28T22:51:23;7.18;;;3.53;;
47896;SDS011;39629;51.400;5.494;2023-02-28T22:56:28;8.23;;;4.13;;
47896;SDS011;39629;51.400;5.494;2023-02-28T23:01:31;8.60;;;4.23;;
47896;SDS011;39629;51.400;5.494;2023-02-28T23:06:34;8.88;;;4.22;;
47896;SDS011;39629;51.400;5.494;2023-02-28T23:11:43;8.05;;;4.03;;
47896;SDS011;39629;51.400;5.494;2023-02-28T23:16:47;9.15;;;4.53;;
47896;SDS011;39629;51.400;5.494;2023-02-28T23:21:49;9.75;;;4.70;;
47896;SDS011;39629;51.400;5.494;2023-02-28T23:26:53;9.13;;;4.60;;
47896;SDS011;39629;51.400;5.494;2023-02-28T23:31:58;9.35;;;4.50;;
47896;SDS011;39629;51.400;5.494;2023-02-28T23:37:00;9.27;;;4.50;;
47896;SDS011;39629;51.400;5.494;2023-02-28T23:42:04;8.30;;;4.28;;
47896;SDS011;39629;51.400;5.494;2023-02-28T23:47:05;8.02;;;3.92;;
47896;SDS011;39629;51.400;5.494;2023-02-28T23:52:07;13.95;;;4.28;;
47896;SDS011;39629;51.400;5.494;2023-02-28T23:57:10;8.80;;;4.65;;
